Time;durP1;ratioP1;P1;durP2;ratioP2;P2;SDS_P1;SDS_P2;PMS_P1;PMS_P2;Temp;Humidity;BMP_temperature;BMP_pressure;BME280_temperature;BME280_humidity;BME280_pressure;Samples;Min_cycle;Max_cycle;Signal;HPM_P1;HPM_P2
2021/10/05 00:04:53;;;;;;;18.1;15.4;;;;;;;12.05;100;98776.94;;;;
2021/10/05 00:14:52;;;;;;;17.2;15.4;;;;;;;12.13;100;98766.47;;;;
2021/10/05 00:24:51;;;;;;;18.5;14.7;;;;;;;12.1;100;98760.59;;;;
2021/10/05 00:34:50;;;;;;;20.5;16;;;;;;;12.03;100;98751.34;;;;
2021/10/05 00:44:49;;;;;;;20.7;16.4;;;;;;;11.82;100;98745.7;;;;
2021/10/05 00:54:48;;;;;;;28.1;16.6;;;;;;;11.74;100;98742.95;;;;
2021/10/05 01:04:47;;;;;;;17.8;13.7;;;;;;;11.67;100;98737.97;;;;
2021/10/05 01:14:47;;;;;;;21.1;16.4;;;;;;;11.63;100;98729.7;;;;
2021/10/05 01:24:46;;;;;;;22.7;16.4;;;;;;;11.53;100;98718.38;;;;
2021/10/05 01:34:45;;;;;;;23.3;19;;;;;;;11.42;100;98720.53;;;;
2021/10/05 01:44:44;;;;;;;22.9;17.8;;;;;;;11.3;100;98711.42;;;;
2021/10/05 01:54:43;;;;;;;16.8;15.1;;;;;;;11.13;100;98711.33;;;;
2021/10/05 02:04:44;;;;;;;19.4;16.3;;;;;;;11.02;100;98705.38;;;;
2021/10/05 02:14:41;;;;;;;21.8;19.5;;;;;;;10.95;100;98705.81;;;;
2021/10/05 02:24:47;;;;;;;24.2;16.3;;;;;;;10.84;100;98699.06;;;;
2021/10/05 02:34:39;;;;;;;22.3;18.5;;;;;;;10.74;100;98693.91;;;;
2021/10/05 02:44:38;;;;;;;20.4;14.1;;;;;;;10.68;100;98683.56;;;;
2021/10/05 02:54:37;;;;;;;18.3;14.6;;;;;;;10.63;100;98680.97;;;;
2021/10/05 03:04:36;;;;;;;19;15.5;;;;;;;10.52;100;98659.65;;;;
2021/10/05 03:14:35;;;;;;;19.9;13.2;;;;;;;10.42;100;98656.39;;;;
2021/10/05 03:24:34;;;;;;;16.4;13.9;;;;;;;10.36;100;98639.55;;;;
2021/10/05 03:34:33;;;;;;;19.5;14.1;;;;;;;10.3;100;98637.28;;;;
2021/10/05 03:44:32;;;;;;;14.2;11.2;;;;;;;10.26;100;98647.07;;;;
2021/10/05 03:54:31;;;;;;;17.6;13;;;;;;;10.34;100;98641.77;;;;
2021/10/05 04:04:30;;;;;;;16.4;14;;;;;;;10.5;100;98626.03;;;;
2021/10/05 04:14:29;;;;;;;19.6;13.8;;;;;;;10.65;100;98624.88;;;;
2021/10/05 04:24:28;;;;;;;16.8;13.2;;;;;;;10.62;100;98625.5;;;;
2021/10/05 04:34:27;;;;;;;20.2;14.3;;;;;;;10.58;100;98636.89;;;;
2021/10/05 04:44:26;;;;;;;18.6;14;;;;;;;10.44;100;98632.66;;;;
2021/10/05 04:54:25;;;;;;;16.3;12.1;;;;;;;10.3;100;98645.37;;;;
2021/10/05 05:04:24;;;;;;;13.1;11.9;;;;;;;10.18;100;98639.7;;;;
2021/10/05 05:14:24;;;;;;;16.4;13.8;;;;;;;10.14;100;98644.89;;;;
2021/10/05 05:24:22;;;;;;;18.4;14;;;;;;;10.21;100;98634.5;;;;
2021/10/05 05:34:21;;;;;;;17.4;13.9;;;;;;;10.37;100;98635.77;;;;
2021/10/05 05:44:21;;;;;;;15.2;12.3;;;;;;;10.56;100;98646.36;;;;
2021/10/05 05:54:20;;;;;;;13.9;12.5;;;;;;;10.84;100;98644.34;;;;
2021/10/05 06:04:19;;;;;;;17;14.8;;;;;;;11.28;100;98638.88;;;;
2021/10/05 06:14:23;;;;;;;18.8;13.5;;;;;;;11.76;100;98635.45;;;;
2021/10/05 06:24:17;;;;;;;13;10.6;;;;;;;12.21;100;98639.52;;;;
2021/10/05 06:34:16;;;;;;;18.9;11.6;;;;;;;12.68;100;98626.94;;;;
2021/10/05 06:44:16;;;;;;;16.3;12.3;;;;;;;13.16;100;98618.59;;;;
2021/10/05 06:54:15;;;;;;;15;11.1;;;;;;;13.64;100;98610.11;;;;
2021/10/05 07:04:14;;;;;;;14.2;10.5;;;;;;;14.13;100;98626.73;;;;
2021/10/05 07:14:14;;;;;;;15.6;9.2;;;;;;;14.68;100;98616.44;;;;
2021/10/05 07:24:13;;;;;;;15;9.2;;;;;;;15.12;100;98614.86;;;;
2021/10/05 07:34:13;;;;;;;14.9;10.2;;;;;;;15.91;100;98610.85;;;;
2021/10/05 07:44:13;;;;;;;14.3;11.8;;;;;;;16.43;100;98614.38;;;;
2021/10/05 07:54:12;;;;;;;12.5;10.9;;;;;;;16.89;100;98609.45;;;;
2021/10/05 08:04:12;;;;;;;14.2;9.8;;;;;;;17.26;100;98607.3;;;;
2021/10/05 08:14:12;;;;;;;6.7;4.7;;;;;;;17.74;100;98606.97;;;;
2021/10/05 08:24:12;;;;;;;7.6;4.9;;;;;;;18.15;100;98602.86;;;;
2021/10/05 08:34:12;;;;;;;8.8;4.5;;;;;;;18.53;100;98613.05;;;;
2021/10/05 08:44:12;;;;;;;12.9;8.3;;;;;;;19.08;100;98598.91;;;;
2021/10/05 08:54:12;;;;;;;14.4;7.2;;;;;;;19.26;100;98585.56;;;;
2021/10/05 09:04:12;;;;;;;7.9;6.4;;;;;;;19.5;100;98593.41;;;;
2021/10/05 09:14:13;;;;;;;9.1;5.8;;;;;;;19.76;100;98600.84;;;;
2021/10/05 09:24:13;;;;;;;11;7.2;;;;;;;20.09;100;98592.75;;;;
2021/10/05 09:34:13;;;;;;;10.3;7.1;;;;;;;20.25;100;98575.34;;;;
2021/10/05 09:44:14;;;;;;;11.8;6.2;;;;;;;20.52;100;98563.98;;;;
2021/10/05 09:54:14;;;;;;;10.1;5.8;;;;;;;20.62;100;98564.5;;;;
2021/10/05 10:04:14;;;;;;;7.1;5.4;;;;;;;20.81;100;98565.1;;;;
2021/10/05 10:14:15;;;;;;;7.5;5.2;;;;;;;20.77;100;98550.58;;;;
2021/10/05 10:24:18;;;;;;;7.8;5;;;;;;;21.1;100;98538.81;;;;
2021/10/05 10:34:16;;;;;;;10.7;6;;;;;;;21.65;100;98541.59;;;;
2021/10/05 10:44:17;;;;;;;9.2;6;;;;;;;21.68;100;98538.08;;;;
2021/10/05 10:54:17;;;;;;;15.8;10.4;;;;;;;22.05;100;98522.25;;;;
2021/10/05 11:04:18;;;;;;;10.8;7.3;;;;;;;21.95;100;98501.81;;;;
2021/10/05 11:14:18;;;;;;;11.4;7.1;;;;;;;22.27;100;98484.7;;;;
2021/10/05 11:24:19;;;;;;;16.2;12.4;;;;;;;22.55;100;98473.8;;;;
2021/10/05 11:34:19;;;;;;;9.1;6;;;;;;;22.74;100;98467.17;;;;
2021/10/05 11:44:20;;;;;;;9;5.9;;;;;;;23.01;100;98460.14;;;;
2021/10/05 11:54:21;;;;;;;9.9;6.2;;;;;;;23.39;100;98458.55;;;;
2021/10/05 12:04:21;;;;;;;9.7;6.3;;;;;;;23.48;100;98445.19;;;;
2021/10/05 12:14:22;;;;;;;12;6.4;;;;;;;23.77;100;98421.93;;;;
2021/10/05 12:24:23;;;;;;;10.7;6.4;;;;;;;23.83;100;98423.08;;;;
2021/10/05 12:34:24;;;;;;;9;6;;;;;;;23.87;100;98418.35;;;;
2021/10/05 12:44:25;;;;;;;16.7;6.6;;;;;;;24.2;100;98413.48;;;;
2021/10/05 12:54:25;;;;;;;13.4;6.4;;;;;;;24.73;100;98399.37;;;;
2021/10/05 13:04:26;;;;;;;9.3;5.2;;;;;;;24.84;98.99609;98392.62;;;;
2021/10/05 13:14:27;;;;;;;6.7;3;;;;;;;24.62;78.03027;98391.17;;;;
2021/10/05 13:24:28;;;;;;;6.4;2.9;;;;;;;24.53;75.47363;98382.59;;;;
2021/10/05 13:34:29;;;;;;;5.6;3.1;;;;;;;24.48;75.3252;98380.25;;;;
2021/10/05 13:44:30;;;;;;;5.4;2.7;;;;;;;24.09;72.89551;98382.46;;;;
2021/10/05 13:54:31;;;;;;;7.6;3.6;;;;;;;23.93;73.53613;98383.7;;;;
2021/10/05 14:04:31;;;;;;;9;4;;;;;;;23.83;75.39258;98378.25;;;;
2021/10/05 14:14:32;;;;;;;5;2.8;;;;;;;23.85;77.29102;98387.67;;;;
2021/10/05 14:24:33;;;;;;;6.9;4.2;;;;;;;23.66;76.77051;98399.16;;;;
2021/10/05 14:34:33;;;;;;;7.9;3.9;;;;;;;22.83;81.8584;98374.95;;;;
2021/10/05 14:44:34;;;;;;;8.6;4.7;;;;;;;22.11;83.81934;98368.97;;;;
2021/10/05 14:54:35;;;;;;;9.7;6;;;;;;;21.64;85.27832;98358.97;;;;
2021/10/05 15:04:37;;;;;;;10.2;4.2;;;;;;;21.46;89.17871;98348.7;;;;
2021/10/05 15:14:36;;;;;;;5;2.7;;;;;;;21.41;95.12012;98359.27;;;;
2021/10/05 15:24:36;;;;;;;7.7;5.1;;;;;;;21.31;93.66113;98360.77;;;;
2021/10/05 15:34:37;;;;;;;19.2;17.2;;;;;;;21.18;97.20996;98365;;;;
2021/10/05 15:44:37;;;;;;;83.9;74.9;;;;;;;20.58;99.17773;98368.06;;;;
2021/10/05 15:54:37;;;;;;;7.4;5.2;;;;;;;20;100;98375.29;;;;
2021/10/05 16:04:38;;;;;;;9.6;6.2;;;;;;;19.21;100;98389.12;;;;
2021/10/05 16:14:38;;;;;;;12.1;8.6;;;;;;;18.86;100;98380.39;;;;
2021/10/05 16:24:39;;;;;;;21.2;17.2;;;;;;;18.55;100;98381.45;;;;
2021/10/05 16:34:38;;;;;;;13.1;7.3;;;;;;;18.39;100;98383.5;;;;
2021/10/05 16:44:38;;;;;;;14.9;9;;;;;;;18.05;100;98385.2;;;;
2021/10/05 16:54:38;;;;;;;18;9.8;;;;;;;17.9;100;98395.07;;;;
2021/10/05 17:04:38;;;;;;;10.1;7;;;;;;;17.5;100;98405.48;;;;
2021/10/05 17:14:38;;;;;;;12;7.9;;;;;;;17.01;100;98421.5;;;;
2021/10/05 17:24:37;;;;;;;9.9;6.9;;;;;;;16.54;100;98422.3;;;;
2021/10/05 17:34:37;;;;;;;6.6;4.9;;;;;;;16.63;100;98416.7;;;;
2021/10/05 17:44:37;;;;;;;10.9;5.9;;;;;;;16.79;100;98416.71;;;;
2021/10/05 17:54:37;;;;;;;16.1;12.1;;;;;;;16.79;100;98416.71;;;;
2021/10/05 18:04:37;;;;;;;10;7.2;;;;;;;16.75;100;98400.3;;;;
2021/10/05 18:14:36;;;;;;;9.9;6.5;;;;;;;16.66;100;98404.34;;;;
2021/10/05 18:24:36;;;;;;;8.7;5.2;;;;;;;16.59;100;98415.84;;;;
2021/10/05 18:34:36;;;;;;;11.4;5;;;;;;;16.51;100;98414.84;;;;
2021/10/05 18:44:35;;;;;;;11.6;7.2;;;;;;;16.48;100;98406.59;;;;
2021/10/05 18:54:38;;;;;;;10.7;5.8;;;;;;;16.48;100;98404.66;;;;
2021/10/05 19:04:35;;;;;;;8.2;5.7;;;;;;;16.25;100;98428.13;;;;
2021/10/05 19:14:34;;;;;;;12;7.5;;;;;;;16.02;100;98443.42;;;;
2021/10/05 19:24:37;;;;;;;6.8;5.1;;;;;;;15.77;100;98428.34;;;;
2021/10/05 19:34:34;;;;;;;10.7;6.7;;;;;;;15.76;100;98426.78;;;;
2021/10/05 19:44:34;;;;;;;10;5.6;;;;;;;15.42;100;98441.64;;;;
2021/10/05 19:54:33;;;;;;;11;6.6;;;;;;;15.32;100;98444.83;;;;
2021/10/05 20:04:33;;;;;;;10.8;4.6;;;;;;;15.63;100;98428.72;;;;
2021/10/05 20:14:32;;;;;;;12.5;6;;;;;;;15.72;100;98425.88;;;;
2021/10/05 20:24:32;;;;;;;10.2;6.3;;;;;;;15.32;100;98442.12;;;;
2021/10/05 20:34:31;;;;;;;12.6;5.2;;;;;;;14.81;100;98425.42;;;;
2021/10/05 20:44:31;;;;;;;11.8;7;;;;;;;14.33;100;98441.59;;;;
2021/10/05 20:54:30;;;;;;;11.7;6.2;;;;;;;13.84;100;98413.53;;;;
2021/10/05 21:04:30;;;;;;;11;6.8;;;;;;;13.4;100;98418.5;;;;
2021/10/05 21:14:29;;;;;;;10.6;7.1;;;;;;;13.02;100;98412.34;;;;
2021/10/05 21:24:29;;;;;;;8.5;5.3;;;;;;;12.84;100;98411.64;;;;
2021/10/05 21:34:28;;;;;;;10.6;7.1;;;;;;;12.55;100;98420.55;;;;
2021/10/05 21:44:27;;;;;;;12.7;8.5;;;;;;;12.31;100;98431.12;;;;
2021/10/05 21:54:26;;;;;;;16;7.2;;;;;;;12.1;100;98414.8;;;;
2021/10/05 22:04:25;;;;;;;13;6.8;;;;;;;12.17;100;98427.81;;;;
2021/10/05 22:14:24;;;;;;;13.5;7.3;;;;;;;12.04;100;98426.09;;;;
2021/10/05 22:24:25;;;;;;;9.8;7.5;;;;;;;11.97;100;98412.28;;;;
2021/10/05 22:34:23;;;;;;;10;6.6;;;;;;;12.29;100;98463.06;;;;
2021/10/05 22:44:22;;;;;;;9.8;7.3;;;;;;;12.15;100;98462.45;;;;
2021/10/05 22:54:21;;;;;;;11.8;5.8;;;;;;;12.29;100;98479.27;;;;
2021/10/05 23:04:20;;;;;;;7.1;5.1;;;;;;;12.22;100;98499.81;;;;
2021/10/05 23:14:19;;;;;;;7;5.2;;;;;;;12.14;100;98490.59;;;;
2021/10/05 23:24:19;;;;;;;10.5;6.3;;;;;;;12.39;100;98478.92;;;;
2021/10/05 23:34:18;;;;;;;9.4;7.1;;;;;;;12.24;100;98509.17;;;;
2021/10/05 23:44:17;;;;;;;15.4;7.4;;;;;;;12.18;100;98509.66;;;;
2021/10/05 23:54:16;;;;;;;8.3;6.1;;;;;;;12.33;100;98506.45;;;;
